sensor_id;sensor_type;location;lat;lon;timestamp;pressure;altitude;pressure_sealevel;temperature;humidity
74524;BME280;63074;44.696;10.358;2023-05-23T00:01:20;99771.09;;;17.72;100.00
74524;BME280;63074;44.696;10.358;2023-05-23T00:03:47;99765.69;;;17.91;100.00
74524;BME280;63074;44.696;10.358;2023-05-23T00:06:14;99764.59;;;17.92;100.00
74524;BME280;63074;44.696;10.358;2023-05-23T00:08:46;99763.28;;;17.90;100.00
74524;BME280;63074;44.696;10.358;2023-05-23T00:11:12;99766.47;;;17.73;100.00
74524;BME280;63074;44.696;10.358;2023-05-23T00:13:38;99770.47;;;17.80;100.00
74524;BME280;63074;44.696;10.358;2023-05-23T00:16:05;99768.81;;;17.55;100.00
74524;BME280;63074;44.696;10.358;2023-05-23T00:18:35;99768.22;;;17.87;100.00
74524;BME280;63074;44.696;10.358;2023-05-23T00:21:01;99768.22;;;17.87;100.00
74524;BME280;63074;44.696;10.358;2023-05-23T00:23:28;99768.16;;;17.64;100.00
74524;BME280;63074;44.696;10.358;2023-05-23T00:25:55;99766.06;;;17.84;100.00
74524;BME280;63074;44.696;10.358;2023-05-23T00:28:23;99758.53;;;17.76;100.00
74524;BME280;63074;44.696;10.358;2023-05-23T00:30:50;99757.91;;;17.84;100.00
74524;BME280;63074;44.696;10.358;2023-05-23T00:33:17;99760.88;;;17.88;100.00
74524;BME280;63074;44.696;10.358;2023-05-23T00:35:47;99763.69;;;17.78;100.00
74524;BME280;63074;44.696;10.358;2023-05-23T00:38:13;99759.06;;;17.78;100.00
74524;BME280;63074;44.696;10.358;2023-05-23T00:40:40;99760.44;;;18.00;100.00
74524;BME280;63074;44.696;10.358;2023-05-23T00:43:06;99753.69;;;17.73;100.00
74524;BME280;63074;44.696;10.358;2023-05-23T00:45:33;99760.06;;;17.87;100.00
74524;BME280;63074;44.696;10.358;2023-05-23T00:48:00;99759.59;;;17.80;100.00
74524;BME280;63074;44.696;10.358;2023-05-23T00:50:28;99758.84;;;17.75;100.00
74524;BME280;63074;44.696;10.358;2023-05-23T00:52:56;99757.22;;;17.74;100.00
74524;BME280;63074;44.696;10.358;2023-05-23T00:55:24;99759.28;;;17.58;100.00
74524;BME280;63074;44.696;10.358;2023-05-23T00:57:54;99756.47;;;17.63;100.00
74524;BME280;63074;44.696;10.358;2023-05-23T01:00:25;99761.84;;;17.73;100.00
74524;BME280;63074;44.696;10.358;2023-05-23T01:02:52;99760.91;;;17.59;100.00
74524;BME280;63074;44.696;10.358;2023-05-23T01:05:19;99755.53;;;17.78;100.00
74524;BME280;63074;44.696;10.358;2023-05-23T01:07:48;99751.66;;;17.60;100.00
74524;BME280;63074;44.696;10.358;2023-05-23T01:10:17;99762.69;;;17.69;100.00
74524;BME280;63074;44.696;10.358;2023-05-23T01:15:16;99761.44;;;17.85;100.00
74524;BME280;63074;44.696;10.358;2023-05-23T01:20:40;99767.28;;;17.44;100.00
74524;BME280;63074;44.696;10.358;2023-05-23T01:28:37;99768.59;;;17.23;100.00
74524;BME280;63074;44.696;10.358;2023-05-23T01:31:07;99768.88;;;17.21;100.00
74524;BME280;63074;44.696;10.358;2023-05-23T01:33:39;99754.25;;;17.17;100.00
74524;BME280;63074;44.696;10.358;2023-05-23T01:36:05;99761.00;;;17.20;100.00
74524;BME280;63074;44.696;10.358;2023-05-23T01:38:32;99756.50;;;17.34;100.00
74524;BME280;63074;44.696;10.358;2023-05-23T01:40:59;99756.69;;;17.19;100.00
74524;BME280;63074;44.696;10.358;2023-05-23T01:43:25;99758.53;;;17.24;100.00
74524;BME280;63074;44.696;10.358;2023-05-23T01:45:55;99763.00;;;17.09;100.00
74524;BME280;63074;44.696;10.358;2023-05-23T01:48:23;99763.56;;;17.06;100.00
74524;BME280;63074;44.696;10.358;2023-05-23T01:50:52;99756.41;;;17.20;100.00
74524;BME280;63074;44.696;10.358;2023-05-23T01:53:21;99761.47;;;16.98;100.00
74524;BME280;63074;44.696;10.358;2023-05-23T01:55:48;99760.97;;;17.25;100.00
74524;BME280;63074;44.696;10.358;2023-05-23T01:58:15;99751.53;;;17.17;100.00
74524;BME280;63074;44.696;10.358;2023-05-23T02:00:41;99758.34;;;17.15;100.00
74524;BME280;63074;44.696;10.358;2023-05-23T02:03:08;99757.13;;;17.31;100.00
74524;BME280;63074;44.696;10.358;2023-05-23T02:05:34;99755.25;;;17.27;100.00
74524;BME280;63074;44.696;10.358;2023-05-23T02:08:00;99750.25;;;17.10;100.00
74524;BME280;63074;44.696;10.358;2023-05-23T02:10:26;99757.41;;;17.01;100.00
74524;BME280;63074;44.696;10.358;2023-05-23T02:12:52;99758.22;;;17.01;100.00
74524;BME280;63074;44.696;10.358;2023-05-23T02:15:19;99755.91;;;17.13;100.00
74524;BME280;63074;44.696;10.358;2023-05-23T02:17:45;99756.19;;;17.12;100.00
74524;BME280;63074;44.696;10.358;2023-05-23T02:20:13;99759.09;;;16.92;100.00
74524;BME280;63074;44.696;10.358;2023-05-23T02:22:39;99758.22;;;17.01;100.00
74524;BME280;63074;44.696;10.358;2023-05-23T02:25:06;99753.78;;;16.76;100.00
74524;BME280;63074;44.696;10.358;2023-05-23T02:27:32;99753.28;;;16.74;100.00
74524;BME280;63074;44.696;10.358;2023-05-23T02:29:58;99755.53;;;16.96;100.00
74524;BME280;63074;44.696;10.358;2023-05-23T02:32:25;99751.06;;;16.76;100.00
74524;BME280;63074;44.696;10.358;2023-05-23T02:34:51;99754.50;;;16.87;100.00
74524;BME280;63074;44.696;10.358;2023-05-23T02:37:17;99755.78;;;16.66;100.00
74524;BME280;63074;44.696;10.358;2023-05-23T02:39:43;99756.88;;;16.99;100.00
74524;BME280;63074;44.696;10.358;2023-05-23T02:42:10;99744.75;;;16.86;100.00
74524;BME280;63074;44.696;10.358;2023-05-23T02:44:36;99750.84;;;16.73;100.00
74524;BME280;63074;44.696;10.358;2023-05-23T02:47:02;99751.97;;;17.01;100.00
74524;BME280;63074;44.696;10.358;2023-05-23T02:49:28;99752.59;;;16.87;100.00
74524;BME280;63074;44.696;10.358;2023-05-23T02:51:54;99753.78;;;16.76;100.00
74524;BME280;63074;44.696;10.358;2023-05-23T02:54:21;99747.59;;;16.71;100.00
74524;BME280;63074;44.696;10.358;2023-05-23T02:56:47;99748.16;;;17.02;100.00
74524;BME280;63074;44.696;10.358;2023-05-23T02:59:15;99743.91;;;16.91;100.00
74524;BME280;63074;44.696;10.358;2023-05-23T03:01:42;99740.91;;;17.21;100.00
74524;BME280;63074;44.696;10.358;2023-05-23T03:04:08;99740.34;;;16.95;100.00
74524;BME280;63074;44.696;10.358;2023-05-23T03:06:35;99735.72;;;16.96;100.00
74524;BME280;63074;44.696;10.358;2023-05-23T03:09:01;99734.44;;;17.17;100.00
74524;BME280;63074;44.696;10.358;2023-05-23T03:11:28;99727.63;;;17.19;100.00
74524;BME280;63074;44.696;10.358;2023-05-23T03:13:55;99731.91;;;16.97;100.00
74524;BME280;63074;44.696;10.358;2023-05-23T03:16:22;99739.41;;;17.05;100.00
74524;BME280;63074;44.696;10.358;2023-05-23T03:18:51;99740.72;;;16.39;100.00
74524;BME280;63074;44.696;10.358;2023-05-23T03:21:17;99743.69;;;16.82;100.00
74524;BME280;63074;44.696;10.358;2023-05-23T03:23:43;99744.31;;;16.74;100.00
74524;BME280;63074;44.696;10.358;2023-05-23T03:26:09;99739.66;;;17.08;100.00
74524;BME280;63074;44.696;10.358;2023-05-23T03:28:35;99727.28;;;17.26;100.00
74524;BME280;63074;44.696;10.358;2023-05-23T03:31:01;99732.38;;;17.04;100.00
74524;BME280;63074;44.696;10.358;2023-05-23T03:33:28;99734.44;;;17.17;100.00
74524;BME280;63074;44.696;10.358;2023-05-23T03:35:54;99733.66;;;16.82;100.00
74524;BME280;63074;44.696;10.358;2023-05-23T03:38:22;99742.56;;;16.88;100.00
74524;BME280;63074;44.696;10.358;2023-05-23T03:40:48;99739.25;;;16.96;100.00
74524;BME280;63074;44.696;10.358;2023-05-23T03:43:14;99736.56;;;16.91;100.00
74524;BME280;63074;44.696;10.358;2023-05-23T03:45:40;99732.16;;;16.66;100.00
74524;BME280;63074;44.696;10.358;2023-05-23T03:48:07;99732.22;;;16.90;100.00
74524;BME280;63074;44.696;10.358;2023-05-23T03:50:33;99737.16;;;16.83;100.00
74524;BME280;63074;44.696;10.358;2023-05-23T03:52:59;99738.50;;;16.85;100.00
74524;BME280;63074;44.696;10.358;2023-05-23T03:55:25;99742.03;;;16.86;100.00
74524;BME280;63074;44.696;10.358;2023-05-23T03:57:52;99737.22;;;16.78;100.00
74524;BME280;63074;44.696;10.358;2023-05-23T04:00:19;99740.47;;;16.75;100.00
74524;BME280;63074;44.696;10.358;2023-05-23T04:02:46;99752.25;;;16.65;100.00
74524;BME280;63074;44.696;10.358;2023-05-23T04:05:12;99749.44;;;16.75;100.00
74524;BME280;63074;44.696;10.358;2023-05-23T04:07:39;99747.94;;;16.93;100.00
74524;BME280;63074;44.696;10.358;2023-05-23T04:10:07;99745.84;;;16.85;100.00
74524;BME280;63074;44.696;10.358;2023-05-23T04:12:34;99744.75;;;16.86;100.00
74524;BME280;63074;44.696;10.358;2023-05-23T04:15:02;99749.41;;;16.80;100.00
74524;BME280;63074;44.696;10.358;2023-05-23T04:17:28;99745.31;;;16.83;100.00
74524;BME280;63074;44.696;10.358;2023-05-23T04:19:56;99755.03;;;16.89;100.00
74524;BME280;63074;44.696;10.358;2023-05-23T04:22:22;99750.22;;;16.81;100.00
74524;BME280;63074;44.696;10.358;2023-05-23T04:24:49;99747.34;;;17.01;100.00
74524;BME280;63074;44.696;10.358;2023-05-23T04:27:15;99751.44;;;16.99;100.00
74524;BME280;63074;44.696;10.358;2023-05-23T04:29:41;99755.13;;;17.08;100.00
74524;BME280;63074;44.696;10.358;2023-05-23T04:32:09;99749.34;;;17.19;100.00
74524;BME280;63074;44.696;10.358;2023-05-23T04:34:36;99757.94;;;17.03;100.00
74524;BME280;63074;44.696;10.358;2023-05-23T04:37:02;99757.13;;;17.02;100.00
74524;BME280;63074;44.696;10.358;2023-05-23T04:39:29;99757.41;;;17.01;100.00
74524;BME280;63074;44.696;10.358;2023-05-23T04:41:55;99757.94;;;17.03;100.00
74524;BME280;63074;44.696;10.358;2023-05-23T04:44:23;99757.03;;;17.07;100.00
74524;BME280;63074;44.696;10.358;2023-05-23T04:46:49;99757.53;;;17.14;100.00
74524;BME280;63074;44.696;10.358;2023-05-23T04:49:15;99749.47;;;17.33;100.00
74524;BME280;63074;44.696;10.358;2023-05-23T04:51:42;99752.13;;;17.38;100.00
74524;BME280;63074;44.696;10.358;2023-05-23T04:54:08;99753.44;;;17.70;100.00
74524;BME280;63074;44.696;10.358;2023-05-23T04:56:35;99752.31;;;17.76;100.00
74524;BME280;63074;44.696;10.358;2023-05-23T04:59:01;99753.44;;;17.94;100.00
74524;BME280;63074;44.696;10.358;2023-05-23T05:01:27;99755.06;;;17.95;100.00
74524;BME280;63074;44.696;10.358;2023-05-23T05:03:54;99753.91;;;18.01;100.00
74524;BME280;63074;44.696;10.358;2023-05-23T05:06:21;99758.63;;;18.14;100.00
74524;BME280;63074;44.696;10.358;2023-05-23T05:08:47;99752.53;;;18.22;100.00
74524;BME280;63074;44.696;10.358;2023-05-23T05:11:13;99756.78;;;18.28;100.00
74524;BME280;63074;44.696;10.358;2023-05-23T05:13:40;99758.09;;;18.49;100.00
74524;BME280;63074;44.696;10.358;2023-05-23T05:16:06;99761.56;;;18.55;100.00
74524;BME280;63074;44.696;10.358;2023-05-23T05:18:32;99755.31;;;18.54;100.00
74524;BME280;63074;44.696;10.358;2023-05-23T05:20:59;99759.06;;;18.59;100.00
74524;BME280;63074;44.696;10.358;2023-05-23T05:23:26;99757.75;;;18.94;100.00
74524;BME280;63074;44.696;10.358;2023-05-23T05:25:56;99753.75;;;19.05;100.00
74524;BME280;63074;44.696;10.358;2023-05-23T05:28:22;99746.91;;;19.21;100.00
74524;BME280;63074;44.696;10.358;2023-05-23T05:30:48;99750.06;;;19.42;100.00
74524;BME280;63074;44.696;10.358;2023-05-23T05:33:20;99749.47;;;19.45;100.00
74524;BME280;63074;44.696;10.358;2023-05-23T05:35:50;99745.09;;;19.76;100.00
74524;BME280;63074;44.696;10.358;2023-05-23T05:38:16;99740.84;;;19.84;100.00
74524;BME280;63074;44.696;10.358;2023-05-23T05:40:43;99746.50;;;19.87;100.00
74524;BME280;63074;44.696;10.358;2023-05-23T05:43:11;99742.75;;;19.97;100.00
74524;BME280;63074;44.696;10.358;2023-05-23T05:45:37;99746.97;;;20.03;100.00
74524;BME280;63074;44.696;10.358;2023-05-23T05:48:04;99751.56;;;20.30;100.00
74524;BME280;63074;44.696;10.358;2023-05-23T05:50:31;99750.56;;;20.26;100.00
74524;BME280;63074;44.696;10.358;2023-05-23T05:52:57;99749.91;;;20.20;100.00
74524;BME280;63074;44.696;10.358;2023-05-23T05:55:23;99752.34;;;20.58;100.00
74524;BME280;63074;44.696;10.358;2023-05-23T05:57:50;99741.03;;;20.51;100.00
74524;BME280;63074;44.696;10.358;2023-05-23T06:00:17;99756.59;;;20.50;100.00
74524;BME280;63074;44.696;10.358;2023-05-23T06:02:45;99743.81;;;20.23;100.00
74524;BME280;63074;44.696;10.358;2023-05-23T06:05:16;99742.28;;;20.45;100.00
74524;BME280;63074;44.696;10.358;2023-05-23T06:07:43;99759.06;;;20.97;100.00
74524;BME280;63074;44.696;10.358;2023-05-23T06:10:09;99758.00;;;21.06;100.00
74524;BME280;63074;44.696;10.358;2023-05-23T06:12:39;99749.06;;;20.92;100.00
74524;BME280;63074;44.696;10.358;2023-05-23T06:15:06;99744.34;;;21.06;100.00
74524;BME280;63074;44.696;10.358;2023-05-23T06:17:32;99745.00;;;21.12;100.00
74524;BME280;63074;44.696;10.358;2023-05-23T06:19:58;99745.38;;;21.19;100.00
74524;BME280;63074;44.696;10.358;2023-05-23T06:22:24;99760.09;;;21.32;100.00
74524;BME280;63074;44.696;10.358;2023-05-23T06:24:51;99753.38;;;21.38;100.00
74524;BME280;63074;44.696;10.358;2023-05-23T06:27:17;99754.34;;;21.42;100.00
74524;BME280;63074;44.696;10.358;2023-05-23T06:29:43;99753.78;;;21.22;100.00
74524;BME280;63074;44.696;10.358;2023-05-23T06:32:09;99790.88;;;21.77;100.00
74524;BME280;63074;44.696;10.358;2023-05-23T06:34:36;99785.47;;;21.94;100.00
74524;BME280;63074;44.696;10.358;2023-05-23T06:37:04;99769.31;;;21.75;100.00
74524;BME280;63074;44.696;10.358;2023-05-23T06:39:30;99764.13;;;22.05;100.00
74524;BME280;63074;44.696;10.358;2023-05-23T06:41:57;99793.75;;;22.11;100.00
74524;BME280;63074;44.696;10.358;2023-05-23T06:44:23;99784.91;;;22.14;100.00
74524;BME280;63074;44.696;10.358;2023-05-23T06:46:49;99763.03;;;22.32;100.00
74524;BME280;63074;44.696;10.358;2023-05-23T06:49:15;99757.72;;;22.18;100.00
74524;BME280;63074;44.696;10.358;2023-05-23T06:51:41;99782.13;;;22.06;100.00
74524;BME280;63074;44.696;10.358;2023-05-23T06:54:08;99775.44;;;22.29;100.00
74524;BME280;63074;44.696;10.358;2023-05-23T06:56:34;99815.34;;;22.21;100.00
74524;BME280;63074;44.696;10.358;2023-05-23T06:59:00;99774.78;;;22.32;100.00
74524;BME280;63074;44.696;10.358;2023-05-23T07:01:26;99836.38;;;22.69;100.00
74524;BME280;63074;44.696;10.358;2023-05-23T07:03:52;99799.94;;;22.60;100.00
74524;BME280;63074;44.696;10.358;2023-05-23T07:06:18;99815.25;;;22.61;100.00
74524;BME280;63074;44.696;10.358;2023-05-23T07:08:45;99784.34;;;22.52;100.00
74524;BME280;63074;44.696;10.358;2023-05-23T07:11:11;99867.44;;;22.56;100.00
74524;BME280;63074;44.696;10.358;2023-05-23T07:13:38;99794.13;;;22.44;100.00
74524;BME280;63074;44.696;10.358;2023-05-23T07:16:06;99818.81;;;22.70;100.00
74524;BME280;63074;44.696;10.358;2023-05-23T07:18:32;99792.72;;;22.90;100.00
74524;BME280;63074;44.696;10.358;2023-05-23T07:20:58;99771.78;;;22.85;100.00
74524;BME280;63074;44.696;10.358;2023-05-23T07:23:25;99726.00;;;22.17;100.00
74524;BME280;63074;44.696;10.358;2023-05-23T07:25:51;99806.97;;;22.18;100.00
74524;BME280;63074;44.696;10.358;2023-05-23T07:28:19;99834.72;;;22.42;100.00
74524;BME280;63074;44.696;10.358;2023-05-23T07:30:45;99828.41;;;22.33;100.00
74524;BME280;63074;44.696;10.358;2023-05-23T07:33:11;99807.81;;;22.36;100.00
74524;BME280;63074;44.696;10.358;2023-05-23T07:35:37;99835.28;;;23.05;100.00
74524;BME280;63074;44.696;10.358;2023-05-23T07:38:04;99767.09;;;22.60;100.00
74524;BME280;63074;44.696;10.358;2023-05-23T07:40:30;99845.72;;;22.68;100.00
74524;BME280;63074;44.696;10.358;2023-05-23T07:42:56;99868.56;;;22.64;100.00
74524;BME280;63074;44.696;10.358;2023-05-23T07:45:22;99846.97;;;22.62;100.00
74524;BME280;63074;44.696;10.358;2023-05-23T07:47:53;99820.06;;;22.55;100.00
74524;BME280;63074;44.696;10.358;2023-05-23T07:50:19;99822.19;;;22.67;100.00
74524;BME280;63074;44.696;10.358;2023-05-23T07:52:46;99832.53;;;22.79;100.00
74524;BME280;63074;44.696;10.358;2023-05-23T07:55:12;99871.53;;;22.93;100.00
74524;BME280;63074;44.696;10.358;2023-05-23T07:57:38;99837.94;;;22.44;100.00
74524;BME280;63074;44.696;10.358;2023-05-23T08:00:05;99834.78;;;22.94;100.00
74524;BME280;63074;44.696;10.358;2023-05-23T08:02:33;99891.84;;;23.01;100.00
74524;BME280;63074;44.696;10.358;2023-05-23T08:04:59;99887.50;;;23.00;100.00
74524;BME280;63074;44.696;10.358;2023-05-23T08:07:26;99869.59;;;23.19;100.00
74524;BME280;63074;44.696;10.358;2023-05-23T08:09:52;99851.38;;;23.23;100.00
74524;BME280;63074;44.696;10.358;2023-05-23T08:12:19;99863.16;;;23.33;100.00
74524;BME280;63074;44.696;10.358;2023-05-23T08:14:46;99852.22;;;22.81;100.00
74524;BME280;63074;44.696;10.358;2023-05-23T08:17:13;99849.28;;;23.20;100.00
74524;BME280;63074;44.696;10.358;2023-05-23T08:19:39;99863.47;;;22.97;100.00
74524;BME280;63074;44.696;10.358;2023-05-23T08:22:06;99876.38;;;23.31;100.00
74524;BME280;63074;44.696;10.358;2023-05-23T08:24:33;99865.88;;;23.24;100.00
74524;BME280;63074;44.696;10.358;2023-05-23T08:26:59;99888.41;;;23.81;100.00
74524;BME280;63074;44.696;10.358;2023-05-23T08:29:25;99908.22;;;23.96;100.00
74524;BME280;63074;44.696;10.358;2023-05-23T08:31:52;99839.56;;;23.49;100.00
74524;BME280;63074;44.696;10.358;2023-05-23T08:34:19;99859.69;;;23.79;100.00
74524;BME280;63074;44.696;10.358;2023-05-23T08:36:45;99928.75;;;23.89;100.00
74524;BME280;63074;44.696;10.358;2023-05-23T08:39:11;99939.97;;;24.05;100.00
74524;BME280;63074;44.696;10.358;2023-05-23T08:41:38;99894.59;;;24.08;100.00
74524;BME280;63074;44.696;10.358;2023-05-23T08:44:05;99902.31;;;24.23;100.00
74524;BME280;63074;44.696;10.358;2023-05-23T08:46:33;99908.41;;;23.73;100.00
74524;BME280;63074;44.696;10.358;2023-05-23T08:49:04;99911.81;;;24.26;100.00
74524;BME280;63074;44.696;10.358;2023-05-23T08:51:33;99871.97;;;24.19;100.00
74524;BME280;63074;44.696;10.358;2023-05-23T08:54:01;99885.38;;;24.12;100.00
74524;BME280;63074;44.696;10.358;2023-05-23T08:56:28;99861.78;;;24.20;100.00
74524;BME280;63074;44.696;10.358;2023-05-23T08:58:54;99861.13;;;24.23;100.00
74524;BME280;63074;44.696;10.358;2023-05-23T09:01:21;99896.28;;;24.38;100.00
74524;BME280;63074;44.696;10.358;2023-05-23T09:03:49;99889.78;;;24.43;100.00
74524;BME280;63074;44.696;10.358;2023-05-23T09:06:16;99863.09;;;24.14;100.00
74524;BME280;63074;44.696;10.358;2023-05-23T09:08:46;99862.75;;;24.53;100.00
74524;BME280;63074;44.696;10.358;2023-05-23T09:11:12;99938.63;;;24.29;100.00
74524;BME280;63074;44.696;10.358;2023-05-23T09:13:39;99931.63;;;24.48;100.00
74524;BME280;63074;44.696;10.358;2023-05-23T09:16:11;99879.59;;;24.73;100.00
74524;BME280;63074;44.696;10.358;2023-05-23T09:18:42;99916.06;;;25.11;100.00
74524;BME280;63074;44.696;10.358;2023-05-23T09:21:09;99915.03;;;24.95;100.00
74524;BME280;63074;44.696;10.358;2023-05-23T09:23:39;99911.97;;;24.88;100.00
74524;BME280;63074;44.696;10.358;2023-05-23T09:26:08;99909.63;;;25.07;100.00
74524;BME280;63074;44.696;10.358;2023-05-23T09:28:35;99885.44;;;24.92;100.00
74524;BME280;63074;44.696;10.358;2023-05-23T09:31:03;99877.38;;;24.87;100.00
74524;BME280;63074;44.696;10.358;2023-05-23T09:33:46;99896.34;;;25.09;100.00
74524;BME280;63074;44.696;10.358;2023-05-23T09:36:13;99918.72;;;24.99;100.00
74524;BME280;63074;44.696;10.358;2023-05-23T09:38:41;99932.09;;;25.42;100.00
74524;BME280;63074;44.696;10.358;2023-05-23T09:41:08;99838.25;;;25.44;100.00
74524;BME280;63074;44.696;10.358;2023-05-23T09:43:50;99911.59;;;25.19;100.00
74524;BME280;63074;44.696;10.358;2023-05-23T09:46:18;99889.75;;;25.22;100.00
74524;BME280;63074;44.696;10.358;2023-05-23T09:48:51;99901.03;;;25.42;100.00
74524;BME280;63074;44.696;10.358;2023-05-23T09:51:20;99956.88;;;25.21;100.00
74524;BME280;63074;44.696;10.358;2023-05-23T09:53:47;99913.09;;;25.37;100.00
74524;BME280;63074;44.696;10.358;2023-05-23T09:56:15;99915.75;;;25.79;100.00
74524;BME280;63074;44.696;10.358;2023-05-23T09:58:49;99930.97;;;25.97;100.00
74524;BME280;63074;44.696;10.358;2023-05-23T10:01:16;99899.28;;;25.58;100.00
74524;BME280;63074;44.696;10.358;2023-05-23T10:03:49;99917.75;;;25.57;100.00
74524;BME280;63074;44.696;10.358;2023-05-23T10:08:58;100008.53;;;25.37;100.00
74524;BME280;63074;44.696;10.358;2023-05-23T10:14:05;99930.66;;;25.78;100.00
74524;BME280;63074;44.696;10.358;2023-05-23T10:16:58;99947.91;;;25.99;100.00
74524;BME280;63074;44.696;10.358;2023-05-23T10:22:18;99937.13;;;26.39;100.00
74524;BME280;63074;44.696;10.358;2023-05-23T10:24:46;99964.41;;;26.32;100.00
74524;BME280;63074;44.696;10.358;2023-05-23T10:27:13;99938.38;;;26.78;100.00
74524;BME280;63074;44.696;10.358;2023-05-23T10:29:39;99971.56;;;26.57;100.00
74524;BME280;63074;44.696;10.358;2023-05-23T10:32:06;99969.16;;;26.80;100.00
74524;BME280;63074;44.696;10.358;2023-05-23T10:34:40;99939.66;;;26.81;100.00
74524;BME280;63074;44.696;10.358;2023-05-23T10:37:21;99948.59;;;27.02;100.00
74524;BME280;63074;44.696;10.358;2023-05-23T10:40:04;99977.25;;;27.38;100.00
74524;BME280;63074;44.696;10.358;2023-05-23T10:42:46;99964.09;;;27.07;100.00
74524;BME280;63074;44.696;10.358;2023-05-23T10:45:22;99988.91;;;26.70;93.80
74524;BME280;63074;44.696;10.358;2023-05-23T10:47:50;100007.72;;;27.41;97.17
74524;BME280;63074;44.696;10.358;2023-05-23T10:50:34;100005.19;;;27.76;90.14
74524;BME280;63074;44.696;10.358;2023-05-23T10:53:03;99961.88;;;27.24;96.51
74524;BME280;63074;44.696;10.358;2023-05-23T10:55:34;100013.25;;;27.17;91.90
74524;BME280;63074;44.696;10.358;2023-05-23T10:58:18;100007.66;;;27.94;89.90
74524;BME280;63074;44.696;10.358;2023-05-23T11:00:54;100030.56;;;28.22;88.19
74524;BME280;63074;44.696;10.358;2023-05-23T11:06:02;100014.34;;;27.65;94.26
74524;BME280;63074;44.696;10.358;2023-05-23T11:08:36;100018.44;;;27.99;81.87
74524;BME280;63074;44.696;10.358;2023-05-23T11:11:04;100014.53;;;28.00;nan
74524;BME280;63074;44.696;10.358;2023-05-23T11:13:53;100033.06;;;27.99;77.45
74524;BME280;63074;44.696;10.358;2023-05-23T11:16:40;100011.00;;;27.87;69.21
74524;BME280;63074;44.696;10.358;2023-05-23T11:21:57;100019.69;;;29.08;65.13
74524;BME280;63074;44.696;10.358;2023-05-23T11:24:46;100038.00;;;28.81;67.62
74524;BME280;63074;44.696;10.358;2023-05-23T11:27:12;100038.28;;;29.27;65.35
74524;BME280;63074;44.696;10.358;2023-05-23T11:29:39;100043.69;;;28.88;65.91
74524;BME280;63074;44.696;10.358;2023-05-23T11:32:12;100062.78;;;29.60;68.00
74524;BME280;63074;44.696;10.358;2023-05-23T11:34:38;100077.56;;;28.53;72.63
74524;BME280;63074;44.696;10.358;2023-05-23T11:37:05;100040.13;;;28.87;62.88
74524;BME280;63074;44.696;10.358;2023-05-23T11:39:32;100057.75;;;29.84;67.81
74524;BME280;63074;44.696;10.358;2023-05-23T11:42:02;100054.75;;;29.04;64.34
74524;BME280;63074;44.696;10.358;2023-05-23T11:44:29;100034.28;;;29.24;61.52
74524;BME280;63074;44.696;10.358;2023-05-23T11:47:13;100038.69;;;30.41;63.79
74524;BME280;63074;44.696;10.358;2023-05-23T11:49:39;100033.25;;;30.25;62.25
74524;BME280;63074;44.696;10.358;2023-05-23T11:52:06;100024.91;;;30.02;56.88
74524;BME280;63074;44.696;10.358;2023-05-23T11:54:33;100005.41;;;30.60;56.95
74524;BME280;63074;44.696;10.358;2023-05-23T11:56:59;100042.66;;;29.82;60.25
74524;BME280;63074;44.696;10.358;2023-05-23T11:59:26;100031.19;;;29.99;56.67
74524;BME280;63074;44.696;10.358;2023-05-23T12:01:54;100022.03;;;29.60;56.15
74524;BME280;63074;44.696;10.358;2023-05-23T12:04:20;99985.66;;;30.19;50.51
74524;BME280;63074;44.696;10.358;2023-05-23T12:06:51;100008.09;;;30.14;55.98
74524;BME280;63074;44.696;10.358;2023-05-23T12:09:17;100019.88;;;30.99;57.65
74524;BME280;63074;44.696;10.358;2023-05-23T12:11:44;100007.41;;;30.63;53.99
74524;BME280;63074;44.696;10.358;2023-05-23T12:14:16;99998.94;;;31.32;54.20
74524;BME280;63074;44.696;10.358;2023-05-23T12:16:44;100006.06;;;31.29;55.49
74524;BME280;63074;44.696;10.358;2023-05-23T12:19:15;100022.25;;;31.53;55.75
74524;BME280;63074;44.696;10.358;2023-05-23T12:21:42;100034.66;;;31.63;58.32
74524;BME280;63074;44.696;10.358;2023-05-23T12:24:18;99988.47;;;32.18;52.57
74524;BME280;63074;44.696;10.358;2023-05-23T12:26:50;100008.16;;;32.40;55.80
74524;BME280;63074;44.696;10.358;2023-05-23T12:29:18;99981.69;;;32.53;50.52
74524;BME280;63074;44.696;10.358;2023-05-23T12:31:48;99989.53;;;32.44;51.83
74524;BME280;63074;44.696;10.358;2023-05-23T12:34:15;99952.91;;;32.82;46.81
74524;BME280;63074;44.696;10.358;2023-05-23T12:36:42;99944.06;;;32.73;49.00
74524;BME280;63074;44.696;10.358;2023-05-23T12:39:10;99990.66;;;33.42;51.20
74524;BME280;63074;44.696;10.358;2023-05-23T12:41:36;99957.31;;;33.63;45.79
74524;BME280;63074;44.696;10.358;2023-05-23T12:44:03;99956.69;;;33.18;46.04
74524;BME280;63074;44.696;10.358;2023-05-23T12:46:29;99977.94;;;33.44;48.65
74524;BME280;63074;44.696;10.358;2023-05-23T12:48:55;99982.78;;;33.65;48.38
74524;BME280;63074;44.696;10.358;2023-05-23T12:51:22;99996.72;;;33.65;52.35
74524;BME280;63074;44.696;10.358;2023-05-23T12:53:48;99951.69;;;33.49;44.95
74524;BME280;63074;44.696;10.358;2023-05-23T12:56:14;99926.72;;;33.81;43.01
74524;BME280;63074;44.696;10.358;2023-05-23T12:58:40;99928.19;;;33.43;41.91
74524;BME280;63074;44.696;10.358;2023-05-23T13:01:06;99914.22;;;32.67;41.68
74524;BME280;63074;44.696;10.358;2023-05-23T13:03:33;99930.41;;;33.09;42.73
74524;BME280;63074;44.696;10.358;2023-05-23T13:05:59;99922.91;;;33.23;42.16
74524;BME280;63074;44.696;10.358;2023-05-23T13:08:26;99924.97;;;33.34;42.84